Time;durP1;ratioP1;P1;durP2;ratioP2;P2;SDS_P1;SDS_P2;PMS_P1;PMS_P2;Temp;Humidity;BMP_temperature;BMP_pressure;BME280_temperature;BME280_humidity;BME280_pressure;Samples;Min_cycle;Max_cycle;Signal;HPM_P1;HPM_P2
2023/12/30 00:01:10;;;;;;;4.60;1.27;;;;;;;18.05;39.78;100995.75;16131934;19;130303;-68
2023/12/30 00:06:33;;;;;;;3.40;1.15;;;;;;;18.01;39.91;101005.59;16117395;19;130608;-66
2023/12/30 00:11:55;;;;;;;3.70;1.17;;;;;;;17.98;40.33;101008.84;16115448;19;131494;-66
2023/12/30 00:17:17;;;;;;;10.88;1.73;;;;;;;17.98;40.14;101017.13;16115460;19;130754;-66
2023/12/30 00:22:39;;;;;;;7.57;1.60;;;;;;;17.95;40.38;101015.69;16126934;19;130282;-68
2023/12/30 00:28:02;;;;;;;5.72;1.17;;;;;;;17.93;40.00;101006.78;16130504;19;129987;-68
2023/12/30 00:33:24;;;;;;;8.98;1.40;;;;;;;17.91;40.03;101013.66;16137851;19;129608;-68
2023/12/30 00:38:46;;;;;;;7.78;1.27;;;;;;;17.88;40.44;101008.59;16131527;19;129278;-68
2023/12/30 00:44:08;;;;;;;7.32;1.85;;;;;;;17.85;40.55;101010.75;16126458;19;131286;-69
2023/12/30 00:49:30;;;;;;;3.50;1.10;;;;;;;17.83;40.46;101021.25;16125215;19;129649;-67
2023/12/30 00:54:52;;;;;;;9.07;1.80;;;;;;;17.82;40.20;101013.16;16121857;19;130447;-69
2023/12/30 01:00:15;;;;;;;8.80;1.75;;;;;;;17.80;40.55;101013.41;16124892;19;129662;-69
2023/12/30 01:05:37;;;;;;;5.45;1.40;;;;;;;17.78;40.61;101010.03;16125174;19;131190;-69
2023/12/30 01:10:59;;;;;;;3.88;1.30;;;;;;;17.77;40.26;101022.19;16119044;19;129555;-69
2023/12/30 01:16:20;;;;;;;9.13;1.70;;;;;;;17.75;40.80;101029.03;16117085;19;131491;-69
2023/12/30 01:21:42;;;;;;;3.30;1.02;;;;;;;17.73;40.38;101034.78;16114640;19;130710;-69
2023/12/30 01:27:04;;;;;;;4.68;1.58;;;;;;;17.72;40.74;101052.50;16113120;19;130204;-68
2023/12/30 01:32:26;;;;;;;4.07;1.10;;;;;;;17.71;40.42;101061.03;16113936;19;129596;-68
2023/12/30 01:37:48;;;;;;;4.07;1.10;;;;;;;17.68;40.41;101054.03;16109026;19;129615;-68
2023/12/30 01:43:28;;;;;;;5.45;1.30;;;;;;;17.68;40.56;101054.03;16110273;19;129251;-69
2023/12/30 01:48:50;;;;;;;7.78;2.00;;;;;;;17.63;40.44;101063.06;16111873;19;130361;-67
2023/12/30 01:54:17;;;;;;;5.32;1.85;;;;;;;17.63;40.44;101073.28;16110211;19;130942;-69
2023/12/30 01:59:40;;;;;;;5.95;1.70;;;;;;;17.62;40.69;101088.19;16108963;19;129537;-68
2023/12/30 02:05:02;;;;;;;5.78;1.10;;;;;;;17.61;40.77;101097.56;16119901;19;131053;-67
2023/12/30 02:10:24;;;;;;;7.47;1.20;;;;;;;17.58;40.52;101087.81;16122052;19;129495;-68
2023/12/30 02:15:46;;;;;;;5.07;1.15;;;;;;;17.57;40.79;101085.28;16127743;19;129860;-68
2023/12/30 02:21:08;;;;;;;7.45;1.15;;;;;;;17.56;40.80;101105.72;16127080;19;130934;-68
2023/12/30 02:26:30;;;;;;;3.83;1.20;;;;;;;17.54;40.88;101108.69;16121099;19;132518;-68
2023/12/30 02:31:53;;;;;;;3.50;0.82;;;;;;;17.53;40.53;101109.78;16122968;19;131389;-68
2023/12/30 02:37:15;;;;;;;3.38;0.95;;;;;;;17.52;40.65;101116.41;16126215;19;129642;-68
2023/12/30 02:42:37;;;;;;;2.25;0.80;;;;;;;17.51;40.94;101120.25;16120549;19;130779;-69
2023/12/30 02:47:58;;;;;;;3.88;0.90;;;;;;;17.50;40.64;101127.69;16120559;19;130496;-68
2023/12/30 02:53:20;;;;;;;3.67;0.90;;;;;;;17.48;40.69;101113.22;16124835;19;132573;-68
2023/12/30 02:58:42;;;;;;;4.38;0.98;;;;;;;17.47;40.86;101125.41;16121880;19;129573;-68
2023/12/30 03:04:05;;;;;;;3.90;1.17;;;;;;;17.46;40.46;101131.16;16116558;19;129316;-68
2023/12/30 03:09:27;;;;;;;2.72;0.80;;;;;;;17.44;40.52;101133.28;16125090;19;131162;-68
2023/12/30 03:14:49;;;;;;;2.88;0.80;;;;;;;17.43;40.63;101134.38;16115170;19;129579;-68
2023/12/30 03:20:11;;;;;;;2.53;0.77;;;;;;;17.41;40.56;101140.16;16118244;19;130895;-68
2023/12/30 03:25:33;;;;;;;3.60;0.98;;;;;;;17.40;40.78;101138.47;16118344;19;130006;-67
2023/12/30 03:30:56;;;;;;;4.68;1.00;;;;;;;17.38;40.71;101127.63;16120385;19;133487;-68
2023/12/30 03:36:18;;;;;;;3.70;1.00;;;;;;;17.37;40.69;101134.25;16117291;19;129857;-69
2023/12/30 03:41:40;;;;;;;5.55;0.93;;;;;;;17.37;40.83;101133.38;16117264;19;129575;-68
2023/12/30 03:47:02;;;;;;;3.30;0.90;;;;;;;17.35;40.89;101132.78;16116511;19;129555;-69
2023/12/30 03:52:24;;;;;;;3.80;1.08;;;;;;;17.35;40.82;101135.56;16115795;19;129830;-69
2023/12/30 03:57:46;;;;;;;4.00;0.88;;;;;;;17.34;40.85;101142.16;16114229;19;129514;-69
2023/12/30 04:03:08;;;;;;;3.33;0.90;;;;;;;17.32;40.71;101149.84;16112624;19;129759;-68
2023/12/30 04:08:30;;;;;;;4.10;0.88;;;;;;;17.31;40.58;101145.38;16117023;19;130038;-68
2023/12/30 04:13:52;;;;;;;5.60;1.00;;;;;;;17.31;40.68;101150.91;16112927;19;129538;-68
2023/12/30 04:19:15;;;;;;;4.32;1.10;;;;;;;17.30;40.70;101135.41;16117120;19;130586;-68
2023/12/30 04:24:37;;;;;;;4.50;1.00;;;;;;;17.29;40.92;101128.19;16116181;19;131647;-68
2023/12/30 04:29:59;;;;;;;3.30;0.90;;;;;;;17.27;40.76;101125.66;16119990;19;130921;-68
2023/12/30 04:35:21;;;;;;;3.50;0.80;;;;;;;17.26;40.89;101136.94;16117245;19;131982;-69
2023/12/30 04:40:44;;;;;;;4.88;1.25;;;;;;;17.24;40.75;101138.00;16113598;19;130968;-68
2023/12/30 04:46:06;;;;;;;3.13;0.80;;;;;;;17.23;40.85;101133.56;16108958;19;130895;-70
2023/12/30 04:51:28;;;;;;;3.83;1.10;;;;;;;17.21;40.57;101138.50;16111965;19;130180;-67
2023/12/30 04:56:51;;;;;;;2.30;0.70;;;;;;;17.21;40.62;101152.31;16109738;19;131213;-69
2023/12/30 05:02:13;;;;;;;3.08;0.73;;;;;;;17.20;41.04;101147.00;16112491;19;130258;-70
2023/12/30 05:07:35;;;;;;;3.08;0.90;;;;;;;17.19;41.11;101167.41;16111614;19;134876;-67
2023/12/30 05:12:57;;;;;;;1.92;0.70;;;;;;;17.18;40.97;101183.19;16110704;19;130503;-68
2023/12/30 05:18:20;;;;;;;3.97;1.02;;;;;;;17.17;40.98;101181.50;16110343;19;130068;-68
2023/12/30 05:23:42;;;;;;;2.90;0.90;;;;;;;17.15;41.08;101183.63;16109981;19;129331;-68
2023/12/30 05:29:04;;;;;;;3.53;0.70;;;;;;;17.17;41.14;101180.66;16107318;19;130523;-68
2023/12/30 05:34:26;;;;;;;3.28;0.82;;;;;;;17.15;40.99;101182.81;16107795;19;130323;-68
2023/12/30 05:39:48;;;;;;;3.47;0.90;;;;;;;17.14;40.83;101165.34;16121281;19;131075;-68
2023/12/30 05:45:10;;;;;;;3.80;0.82;;;;;;;17.13;41.04;101177.47;16122570;19;130091;-68
2023/12/30 05:50:32;;;;;;;3.30;0.95;;;;;;;17.13;41.21;101180.25;16124062;19;130206;-68
2023/12/30 05:55:54;;;;;;;4.28;0.77;;;;;;;17.11;41.15;101179.63;16121442;19;129620;-68
2023/12/30 06:01:16;;;;;;;4.45;0.80;;;;;;;17.11;40.65;101190.69;16122612;19;130313;-68
2023/12/30 06:06:38;;;;;;;4.82;1.25;;;;;;;17.11;40.89;101198.16;16123186;19;130184;-68
2023/12/30 06:12:00;;;;;;;1.55;0.63;;;;;;;17.16;40.75;101188.09;16119629;19;132278;-69
2023/12/30 06:17:22;;;;;;;2.22;0.82;;;;;;;17.29;40.54;101194.53;16124614;19;129609;-68
2023/12/30 06:22:44;;;;;;;2.45;0.80;;;;;;;17.44;40.51;101192.25;16118821;19;131184;-68
2023/12/30 06:28:06;;;;;;;2.33;0.70;;;;;;;17.62;40.23;101204.38;16117308;19;130908;-68
2023/12/30 06:33:28;;;;;;;2.58;0.90;;;;;;;17.77;40.13;101204.81;16120162;19;130827;-67
2023/12/30 06:38:50;;;;;;;4.97;1.10;;;;;;;17.94;40.18;101212.47;16114562;19;129715;-62
2023/12/30 06:44:12;;;;;;;5.88;0.80;;;;;;;18.04;39.79;101204.44;16123118;19;129650;-71
2023/12/30 06:49:38;;;;;;;3.75;0.85;;;;;;;18.15;39.63;101208.34;16123511;19;129365;-68
2023/12/30 06:55:00;;;;;;;;;;;;;;;18.20;39.92;101210.41;16120745;19;129333;-66
2023/12/30 07:00:35;;;;;;;4.88;1.00;;;;;;;18.30;39.70;101210.66;16125349;19;134375;-64
2023/12/30 07:05:58;;;;;;;5.95;1.30;;;;;;;18.37;39.73;101208.63;16117420;19;130737;-64
2023/12/30 07:11:20;;;;;;;4.22;0.90;;;;;;;18.46;39.25;101204.44;16123453;19;130443;-62
2023/12/30 07:16:42;;;;;;;7.47;1.23;;;;;;;18.58;39.57;101218.34;16120323;19;130784;-62
2023/12/30 07:22:04;;;;;;;4.50;1.10;;;;;;;18.69;39.47;101213.91;16118170;19;130565;-62
2023/12/30 07:27:26;;;;;;;3.78;0.80;;;;;;;18.77;39.39;101220.97;16118706;19;130110;-64
2023/12/30 07:32:47;;;;;;;3.80;1.15;;;;;;;18.83;39.04;101214.50;16116869;19;130561;-67
2023/12/30 07:38:10;;;;;;;2.80;0.80;;;;;;;18.86;39.21;101208.47;16119719;19;131631;-68
2023/12/30 07:43:31;;;;;;;3.70;1.15;;;;;;;18.90;39.40;101236.56;16121148;19;129043;-69
2023/12/30 07:48:53;;;;;;;4.05;1.30;;;;;;;18.94;38.95;101242.44;16119203;19;131514;-69
2023/12/30 07:54:15;;;;;;;2.65;0.90;;;;;;;18.96;39.15;101240.28;16119444;19;131350;-69
2023/12/30 07:59:37;;;;;;;2.63;0.82;;;;;;;18.99;38.94;101251.75;16119230;19;131177;-68
2023/12/30 08:05:01;;;;;;;2.72;0.90;;;;;;;19.00;38.92;101253.44;16118667;19;129502;-72
2023/12/30 08:10:24;;;;;;;3.28;0.90;;;;;;;19.01;38.79;101260.66;16117163;19;129496;-68
2023/12/30 08:15:45;;;;;;;3.53;1.00;;;;;;;18.99;38.73;101267.53;16118778;19;130832;-70
2023/12/30 08:21:07;;;;;;;4.93;0.95;;;;;;;18.98;39.04;101266.69;16112253;19;130154;-67
2023/12/30 08:26:29;;;;;;;2.55;0.82;;;;;;;19.00;38.85;101260.91;16114780;19;129994;-69
2023/12/30 08:31:51;;;;;;;5.57;1.08;;;;;;;19.05;38.54;101270.19;16110508;19;129950;-68
2023/12/30 08:37:13;;;;;;;5.28;0.98;;;;;;;19.12;38.94;101263.66;16106885;19;131715;-70
2023/12/30 08:42:35;;;;;;;5.13;1.40;;;;;;;19.19;38.69;101256.09;16110122;19;130248;-69
2023/12/30 08:47:57;;;;;;;8.07;1.40;;;;;;;19.24;38.42;101259.00;16108319;19;130290;-69
2023/12/30 08:53:24;;;;;;;4.90;1.20;;;;;;;19.30;38.43;101258.03;16112082;19;129487;-70
2023/12/30 08:58:46;;;;;;;5.93;1.20;;;;;;;19.36;38.38;101248.72;16109965;19;131209;-73
2023/12/30 09:04:08;;;;;;;2.92;0.85;;;;;;;19.43;38.56;101261.66;16102480;19;130233;-69
2023/12/30 09:09:31;;;;;;;10.05;1.70;;;;;;;19.49;37.95;101260.66;16102722;19;130504;-69
2023/12/30 09:14:52;;;;;;;9.63;1.70;;;;;;;19.49;37.79;101264.28;16101295;19;131254;-70
2023/12/30 09:20:15;;;;;;;14.15;1.70;;;;;;;19.53;38.16;101270.19;16109349;19;130470;-71
2023/12/30 09:25:37;;;;;;;10.77;1.80;;;;;;;19.56;37.69;101278.03;16106578;19;129592;-73
2023/12/30 09:30:59;;;;;;;8.38;1.38;;;;;;;19.57;38.05;101271.38;16105167;19;129738;-70
2023/12/30 09:36:22;;;;;;;5.78;1.20;;;;;;;19.57;37.62;101287.19;16104276;19;131421;-72
2023/12/30 09:41:44;;;;;;;9.73;1.38;;;;;;;19.55;37.86;101287.44;16105235;19;129732;-69
2023/12/30 09:47:11;;;;;;;7.03;1.63;;;;;;;19.52;37.88;101279.59;16098774;19;131848;-67
2023/12/30 09:52:33;;;;;;;6.63;1.70;;;;;;;19.46;38.09;101284.19;16104219;19;129604;-71
2023/12/30 09:57:55;;;;;;;6.05;1.75;;;;;;;19.40;37.87;101282.38;16100039;19;130689;-72
2023/12/30 10:03:18;;;;;;;10.20;1.88;;;;;;;19.34;37.82;101281.41;16101271;19;130355;-71
2023/12/30 10:08:42;;;;;;;11.50;1.67;;;;;;;19.29;38.05;101275.78;16101427;19;133090;-67
2023/12/30 10:14:04;;;;;;;10.27;2.00;;;;;;;19.24;38.31;101292.28;16103494;19;130073;-71
2023/12/30 10:19:26;;;;;;;9.45;1.60;;;;;;;19.18;38.20;101290.47;16103651;19;130009;-73
2023/12/30 10:24:48;;;;;;;7.50;1.95;;;;;;;19.15;38.28;101290.94;16108320;19;131730;-71
2023/12/30 10:30:16;;;;;;;9.93;1.80;;;;;;;19.11;38.45;101286.94;16119010;19;129461;-72
2023/12/30 10:35:39;;;;;;;8.48;1.63;;;;;;;19.04;38.22;101287.91;16116786;19;130498;-68
2023/12/30 10:41:01;;;;;;;6.80;1.63;;;;;;;18.98;38.39;101280.53;16113327;19;131685;-70
2023/12/30 10:46:26;;;;;;;9.48;1.80;;;;;;;18.94;38.51;101275.72;16119684;19;129864;-67
2023/12/30 10:51:52;;;;;;;11.57;1.63;;;;;;;18.86;38.60;101274.16;16120283;19;129516;-69
2023/12/30 10:57:18;;;;;;;9.85;2.03;;;;;;;18.81;38.61;101282.34;16119805;19;129711;-71
2023/12/30 11:02:41;;;;;;;8.52;1.98;;;;;;;18.73;38.98;101264.97;16114234;19;130998;-70
2023/12/30 11:08:04;;;;;;;10.57;1.95;;;;;;;18.69;38.75;101255.47;16115837;19;129340;-72
2023/12/30 11:13:26;;;;;;;7.13;1.75;;;;;;;18.66;39.03;101246.75;16116053;19;130832;-70
2023/12/30 11:18:49;;;;;;;6.63;1.65;;;;;;;18.63;39.07;101241.72;16110354;19;131527;-68
2023/12/30 11:24:18;;;;;;;9.38;1.90;;;;;;;18.59;39.01;101230.25;16113254;19;129890;-72
2023/12/30 11:29:40;;;;;;;5.43;1.27;;;;;;;18.56;38.80;101230.75;16115663;19;129789;-66
2023/12/30 11:35:03;;;;;;;5.18;1.42;;;;;;;18.53;39.20;101217.38;16115644;19;129599;-69
2023/12/30 11:40:28;;;;;;;7.25;2.03;;;;;;;18.52;39.36;101207.34;16114586;19;129555;-66
2023/12/30 11:45:51;;;;;;;6.45;1.50;;;;;;;18.49;39.37;101200.38;16113154;19;130686;-69
2023/12/30 11:51:24;;;;;;;6.35;1.60;;;;;;;18.49;39.04;101196.75;16114369;19;131622;-70
2023/12/30 11:56:46;;;;;;;6.45;1.52;;;;;;;18.43;39.57;101199.41;16113419;19;129569;-71
2023/12/30 12:02:11;;;;;;;5.93;1.50;;;;;;;18.42;39.10;101185.78;16113349;19;129768;-69
2023/12/30 12:07:34;;;;;;;5.15;1.20;;;;;;;18.41;39.13;101184.94;16111300;19;129552;-74
2023/12/30 12:12:57;;;;;;;5.55;1.20;;;;;;;18.38;39.20;101171.53;16111806;19;131413;-70
2023/12/30 12:18:22;;;;;;;5.53;1.20;;;;;;;18.38;39.42;101162.38;16113335;19;130049;-71
2023/12/30 12:23:44;;;;;;;;;;;;;;;18.33;39.39;101152.03;16112998;19;129650;-73
2023/12/30 12:29:06;;;;;;;5.85;1.40;;;;;;;18.33;39.53;101138.19;16110447;19;130394;-68
2023/12/30 12:34:28;;;;;;;5.63;1.52;;;;;;;18.32;39.73;101136.50;16111141;19;129509;-70
2023/12/30 12:39:51;;;;;;;4.30;1.27;;;;;;;18.32;39.79;101130.97;16111337;19;131062;-66
2023/12/30 12:45:13;;;;;;;5.68;1.52;;;;;;;18.37;39.48;101133.84;16108716;19;129809;-67
2023/12/30 12:50:35;;;;;;;8.57;1.77;;;;;;;18.44;39.78;101120.75;16109680;19;133545;-72
2023/12/30 12:55:57;;;;;;;5.10;1.30;;;;;;;18.56;39.22;101115.19;16106442;19;129352;-67
2023/12/30 13:01:19;;;;;;;4.18;1.10;;;;;;;18.68;39.05;101106.91;16109841;19;129805;-68
2023/12/30 13:06:42;;;;;;;3.10;1.05;;;;;;;18.80;39.15;101086.63;16105677;19;129631;-70
2023/12/30 13:12:04;;;;;;;5.15;1.67;;;;;;;18.91;38.98;101071.91;16103924;19;130602;-69
2023/12/30 13:17:26;;;;;;;3.70;1.10;;;;;;;18.99;39.07;101068.75;16102862;19;130323;-69
2023/12/30 13:22:56;;;;;;;4.28;1.05;;;;;;;19.08;38.63;101066.44;16103689;19;131689;-65
2023/12/30 13:28:19;;;;;;;4.25;0.90;;;;;;;19.15;38.92;101058.81;16103726;19;130043;-69
2023/12/30 13:33:43;;;;;;;3.15;1.05;;;;;;;19.19;38.39;101056.41;16105704;19;131588;-69
2023/12/30 13:39:06;;;;;;;4.40;1.25;;;;;;;19.22;38.57;101053.13;16104548;19;129603;-66
2023/12/30 13:44:34;;;;;;;4.25;1.00;;;;;;;19.21;38.31;101040.38;16105381;19;129610;-70
2023/12/30 13:55:21;;;;;;;5.88;1.05;;;;;;;19.16;38.64;101024.44;16099706;19;130773;-65
2023/12/30 14:00:43;;;;;;;5.22;1.33;;;;;;;19.13;38.54;101022.19;16120464;19;130550;-68
2023/12/30 14:06:07;;;;;;;3.85;1.35;;;;;;;19.11;38.33;101016.03;16113902;19;131519;-66
2023/12/30 14:11:45;;;;;;;4.95;1.30;;;;;;;19.06;38.73;101000.16;16107760;19;132647;-66
2023/12/30 14:17:08;;;;;;;7.60;1.40;;;;;;;19.04;38.52;100996.78;16102221;19;130691;-69
2023/12/30 14:22:33;;;;;;;3.05;0.90;;;;;;;19.00;38.72;100978.94;16110292;19;131526;-72
2023/12/30 14:27:55;;;;;;;;;;;;;;;18.95;38.48;100987.16;16113829;19;129799;-73
2023/12/30 14:33:17;;;;;;;3.65;1.10;;;;;;;18.94;38.87;100979.94;16116579;19;130152;-66
2023/12/30 14:38:39;;;;;;;6.82;0.93;;;;;;;18.91;38.78;100969.34;16116670;19;130648;-66
2023/12/30 14:44:01;;;;;;;3.40;1.00;;;;;;;18.88;38.50;100962.38;16118848;19;135119;-66
2023/12/30 14:49:23;;;;;;;3.25;0.90;;;;;;;18.87;38.97;100976.44;16117163;19;130175;-65
2023/12/30 14:54:46;;;;;;;8.25;1.23;;;;;;;18.86;38.81;100980.31;16120628;19;131615;-65
2023/12/30 15:00:13;;;;;;;5.20;0.80;;;;;;;18.85;38.87;100973.09;16116602;19;130780;-65
2023/12/30 15:05:35;;;;;;;4.68;0.90;;;;;;;18.83;38.79;100972.50;16112949;19;129255;-66
2023/12/30 15:10:57;;;;;;;5.68;1.70;;;;;;;18.83;38.71;100966.97;16112991;19;131699;-66
2023/12/30 15:16:19;;;;;;;3.13;0.73;;;;;;;18.80;38.61;100959.16;16108206;19;130405;-67
2023/12/30 15:21:42;;;;;;;2.30;0.90;;;;;;;18.79;38.64;100958.28;16111506;19;129590;-65
2023/12/30 15:27:04;;;;;;;4.20;1.08;;;;;;;18.79;38.97;100951.91;16111118;19;131448;-65
2023/12/30 15:32:26;;;;;;;2.47;0.80;;;;;;;18.77;39.06;100944.69;16112485;19;130738;-65
2023/12/30 15:37:48;;;;;;;2.47;0.70;;;;;;;18.76;39.04;100942.16;16112860;19;130765;-65
2023/12/30 15:43:10;;;;;;;2.83;0.88;;;;;;;18.75;39.00;100937.72;16112937;19;130051;-65
2023/12/30 15:48:35;;;;;;;4.80;1.02;;;;;;;18.74;38.95;100923.00;16113826;19;129272;-65
2023/12/30 15:53:58;;;;;;;3.47;0.50;;;;;;;18.73;39.15;100915.78;16109813;19;129971;-63
2023/12/30 15:59:20;;;;;;;6.72;1.20;;;;;;;18.73;38.65;100921.31;16109317;19;129771;-62
2023/12/30 16:04:42;;;;;;;35.00;2.88;;;;;;;18.74;39.04;100917.47;16111668;19;131195;-64
2023/12/30 16:10:04;;;;;;;33.75;2.45;;;;;;;18.75;39.44;100912.78;16109239;19;130696;-62
2023/12/30 16:15:29;;;;;;;20.95;1.88;;;;;;;18.74;39.06;100905.53;16108736;19;129815;-62
2023/12/30 16:20:52;;;;;;;28.37;3.23;;;;;;;18.73;39.24;100909.41;16103736;19;131127;-61
2023/12/30 16:26:15;;;;;;;39.78;2.78;;;;;;;18.77;40.10;100916.97;16119764;19;129547;-67
2023/12/30 16:31:37;;;;;;;21.38;2.05;;;;;;;18.83;39.82;100914.31;16115416;19;132969;-66
2023/12/30 16:36:59;;;;;;;26.75;1.90;;;;;;;;;;16113545;19;129704;-65
2023/12/30 16:42:21;;;;;;;21.13;1.58;;;;;;;19.09;39.25;100921.16;16109810;19;135294;-66
2023/12/30 16:47:43;;;;;;;11.27;1.63;;;;;;;19.37;38.86;100909.19;16108450;19;129826;-66
2023/12/30 16:53:05;;;;;;;13.60;1.50;;;;;;;19.74;38.80;100907.84;16112403;19;129747;-66
2023/12/30 16:58:30;;;;;;;21.20;1.63;;;;;;;20.07;38.00;100903.34;16114612;19;129472;-66
2023/12/30 17:03:52;;;;;;;12.43;1.20;;;;;;;20.37;37.79;100893.69;16112270;19;129928;-65
2023/12/30 17:09:14;;;;;;;13.18;1.50;;;;;;;20.62;37.20;100883.16;16112906;19;129713;-66
2023/12/30 17:14:36;;;;;;;13.68;1.30;;;;;;;20.81;37.23;100875.31;16108551;19;131150;-66
2023/12/30 17:19:58;;;;;;;14.40;0.95;;;;;;;20.96;36.86;100874.63;16109659;19;130065;-65
2023/12/30 17:25:20;;;;;;;9.35;1.30;;;;;;;21.10;36.68;100870.31;16108483;19;132338;-65
2023/12/30 17:30:43;;;;;;;12.85;2.10;;;;;;;21.20;36.67;100870.41;16104905;19;131657;-65
2023/12/30 17:36:05;;;;;;;7.20;1.20;;;;;;;21.26;36.25;100859.31;16136242;19;130895;-66
2023/12/30 17:41:27;;;;;;;8.48;1.27;;;;;;;21.25;36.67;100864.03;16141490;19;129717;-66
2023/12/30 17:46:49;;;;;;;12.00;1.10;;;;;;;21.22;36.30;100862.63;16133479;19;129954;-66
2023/12/30 17:52:11;;;;;;;10.20;0.90;;;;;;;21.18;36.64;100863.44;16138804;19;131239;-66
2023/12/30 17:57:33;;;;;;;6.28;0.85;;;;;;;21.10;36.18;100856.41;16135227;19;129797;-65
2023/12/30 18:02:54;;;;;;;8.20;0.98;;;;;;;21.02;36.68;100848.56;16136817;19;131553;-65
2023/12/30 18:08:16;;;;;;;10.80;1.13;;;;;;;20.90;36.33;100834.81;16136492;19;133612;-65
2023/12/30 18:13:38;;;;;;;8.30;0.98;;;;;;;20.79;36.48;100821.91;16133888;19;130994;-66
2023/12/30 18:19:00;;;;;;;9.05;1.30;;;;;;;20.67;36.57;100827.63;16137573;19;130462;-65
2023/12/30 18:24:22;;;;;;;8.32;0.90;;;;;;;20.53;37.01;100825.28;16137431;19;131597;-65
2023/12/30 18:29:44;;;;;;;5.15;1.05;;;;;;;20.41;37.01;100816.25;16134536;19;130690;-65
2023/12/30 18:35:06;;;;;;;4.85;0.70;;;;;;;20.31;37.17;100819.75;16133215;19;129580;-66
2023/12/30 18:40:28;;;;;;;4.63;1.10;;;;;;;20.22;37.19;100802.69;16135812;19;131646;-66
2023/12/30 18:45:52;;;;;;;4.60;0.90;;;;;;;20.16;37.47;100787.06;16122641;19;131755;-66
2023/12/30 18:51:16;;;;;;;4.00;0.70;;;;;;;20.13;37.35;100770.94;16115882;19;130287;-66
2023/12/30 18:56:38;;;;;;;4.57;0.80;;;;;;;20.20;37.57;100771.53;16114006;19;130078;-65
2023/12/30 19:02:00;;;;;;;4.68;0.80;;;;;;;20.35;37.06;100758.94;16116947;19;129390;-65
2023/12/30 19:07:22;;;;;;;6.05;0.63;;;;;;;20.50;37.25;100756.31;16114011;19;130568;-66
2023/12/30 19:12:45;;;;;;;1.83;0.70;;;;;;;20.67;36.83;100755.34;16114359;19;129472;-66
2023/12/30 19:18:07;;;;;;;2.63;0.50;;;;;;;20.82;36.67;100749.09;16110722;19;130248;-67
2023/12/30 19:23:30;;;;;;;2.45;0.77;;;;;;;20.97;36.75;100749.25;16115208;19;131796;-67
2023/12/30 19:28:52;;;;;;;2.47;0.52;;;;;;;21.10;36.69;100749.88;16110677;19;131063;-67
2023/12/30 19:34:14;;;;;;;5.82;0.90;;;;;;;21.17;36.46;100740.16;16100556;19;130121;-66
2023/12/30 19:39:38;;;;;;;4.30;0.80;;;;;;;21.21;36.35;100724.63;16107642;19;131467;-66
2023/12/30 19:45:01;;;;;;;5.93;0.70;;;;;;;21.21;36.40;100713.50;16106462;19;130640;-63
2023/12/30 19:50:23;;;;;;;5.68;1.00;;;;;;;21.19;36.33;100703.75;16109677;19;130032;-63
2023/12/30 19:55:46;;;;;;;5.28;0.75;;;;;;;21.14;36.66;100701.78;16110896;19;130805;-63
2023/12/30 20:01:14;;;;;;;5.70;1.38;;;;;;;21.10;37.05;100689.50;16108269;19;131821;-63
2023/12/30 20:06:39;;;;;;;35.38;2.88;;;;;;;21.09;36.87;100689.78;16113911;19;130462;-63
2023/12/30 20:12:02;;;;;;;34.45;2.38;;;;;;;21.10;37.33;100683.13;16115839;19;131191;-66
2023/12/30 20:17:24;;;;;;;18.13;1.67;;;;;;;21.09;37.23;100671.16;16113619;19;129927;-68
2023/12/30 20:22:46;;;;;;;29.42;2.60;;;;;;;21.08;37.51;100652.78;16119210;19;130475;-72
2023/12/30 20:28:09;;;;;;;20.73;2.00;;;;;;;21.07;37.59;100651.09;16116280;19;131094;-70
2023/12/30 20:33:31;;;;;;;17.80;2.20;;;;;;;21.05;37.96;100644.97;16109696;19;130755;-68
2023/12/30 20:38:54;;;;;;;17.50;1.58;;;;;;;21.02;37.88;100634.41;16116707;19;129698;-69
2023/12/30 20:44:16;;;;;;;24.35;2.05;;;;;;;20.99;38.26;100632.16;16118921;19;130327;-66
2023/12/30 20:49:38;;;;;;;11.48;1.77;;;;;;;21.00;38.26;100617.16;16113512;19;129877;-68
2023/12/30 20:55:03;;;;;;;11.73;1.25;;;;;;;21.04;38.07;100618.28;16117834;19;129692;-68
2023/12/30 21:00:25;;;;;;;;;;;;;;;21.10;38.39;100600.50;16118616;19;130042;-70
2023/12/30 21:05:47;;;;;;;17.50;1.23;;;;;;;21.25;38.14;100601.69;16117542;19;129684;-73
2023/12/30 21:11:08;;;;;;;13.90;1.60;;;;;;;21.29;37.52;100603.63;16108271;19;131779;-69
2023/12/30 21:16:30;;;;;;;36.88;3.15;;;;;;;21.28;37.61;100585.28;16109408;19;129951;-69
2023/12/30 21:21:52;;;;;;;32.28;2.60;;;;;;;21.24;37.83;100574.97;16106626;19;130130;-68
2023/12/30 21:27:14;;;;;;;30.23;3.28;;;;;;;21.16;37.84;100552.16;16107062;19;129964;-70
2023/12/30 21:32:36;;;;;;;33.17;3.05;;;;;;;21.08;37.72;100544.31;16110663;19;130941;-69
2023/12/30 21:37:58;;;;;;;29.73;2.58;;;;;;;20.97;37.83;100517.56;16109543;19;130840;-69
2023/12/30 21:43:24;;;;;;;24.25;2.38;;;;;;;20.87;38.17;100502.53;16109097;19;130574;-69
2023/12/30 21:48:46;;;;;;;18.00;2.08;;;;;;;20.79;37.94;100491.94;16111428;19;129676;-68
2023/12/30 21:54:08;;;;;;;19.98;1.88;;;;;;;20.70;37.86;100485.16;16106762;19;131128;-68
2023/12/30 21:59:30;;;;;;;19.85;2.35;;;;;;;20.61;38.33;100473.75;16107812;19;129640;-68
2023/12/30 22:04:53;;;;;;;15.85;1.85;;;;;;;20.53;38.45;100458.44;16100859;19;130795;-68
2023/12/30 22:10:15;;;;;;;23.02;1.70;;;;;;;20.45;38.32;100461.72;16109728;19;129579;-68
2023/12/30 22:15:37;;;;;;;25.85;2.00;;;;;;;20.38;38.79;100463.91;16111128;19;130636;-66
2023/12/30 22:20:59;;;;;;;16.40;2.05;;;;;;;20.30;38.79;100445.81;16110242;19;133502;-69
2023/12/30 22:26:20;;;;;;;27.65;2.50;;;;;;;20.20;38.70;100438.25;16118814;19;134258;-67
2023/12/30 22:31:42;;;;;;;16.80;1.90;;;;;;;20.14;38.60;100444.88;16115221;19;129603;-68
2023/12/30 22:37:05;;;;;;;18.27;2.10;;;;;;;20.11;38.62;100456.53;16116449;19;130298;-67
2023/12/30 22:42:27;;;;;;;15.30;1.45;;;;;;;20.02;38.83;100456.19;16119223;19;129703;-67
2023/12/30 22:47:49;;;;;;;9.20;1.10;;;;;;;19.97;38.85;100445.84;16112376;19;131146;-67
2023/12/30 22:53:11;;;;;;;7.43;0.77;;;;;;;19.92;38.85;100434.72;16119117;19;131121;-67
2023/12/30 22:58:33;;;;;;;5.55;0.82;;;;;;;19.87;38.64;100420.81;16112176;19;130438;-67
2023/12/30 23:03:55;;;;;;;8.80;0.88;;;;;;;19.82;38.73;100412.44;16109285;19;130103;-68
2023/12/30 23:09:17;;;;;;;11.35;1.42;;;;;;;19.76;38.43;100399.63;16117318;19;130500;-66
2023/12/30 23:14:39;;;;;;;4.57;1.10;;;;;;;19.69;38.78;100386.00;16116788;19;131595;-67
2023/12/30 23:20:03;;;;;;;7.25;0.70;;;;;;;19.61;38.80;100361.53;16112143;19;130045;-67
2023/12/30 23:25:25;;;;;;;6.10;1.00;;;;;;;19.54;38.58;100358.97;16112322;19;129711;-67
2023/12/30 23:30:47;;;;;;;4.20;0.77;;;;;;;19.48;38.61;100340.59;16109579;19;129728;-68
2023/12/30 23:36:09;;;;;;;3.85;0.70;;;;;;;19.45;38.41;100343.91;16107959;19;131343;-68
2023/12/30 23:41:31;;;;;;;3.00;0.52;;;;;;;19.36;38.46;100327.75;16114998;19;129656;-68
2023/12/30 23:46:53;;;;;;;3.78;0.70;;;;;;;19.31;38.96;100322.19;16111457;19;129516;-68
2023/12/30 23:52:15;;;;;;;2.08;0.50;;;;;;;19.23;38.67;100297.72;16116309;19;129543;-68
2023/12/30 23:57:38;;;;;;;3.92;0.80;;;;;;;19.18;38.62;100297.66;16115640;19;131275;-67
